createdAt,value
2023-03-23T00:00:51.623Z,96662.97
2023-03-23T00:10:57.810Z,96644.28
2023-03-23T00:21:00.138Z,96645.91
2023-03-23T00:31:07.268Z,96635.06
2023-03-23T00:41:12.559Z,96644.31
2023-03-23T00:51:14.891Z,96621.63
2023-03-23T01:01:17.183Z,96619.50
2023-03-23T01:11:19.479Z,96611.41
2023-03-23T01:21:22.347Z,96598.38
2023-03-23T01:31:27.403Z,96594.34
2023-03-23T01:41:29.959Z,96588.09
2023-03-23T01:51:41.882Z,96580.81
2023-03-23T02:01:46.288Z,96579.47
2023-03-23T02:11:51.335Z,96581.59
2023-03-23T02:22:08.576Z,96594.84
2023-03-23T02:32:40.700Z,96589.16
2023-03-23T02:42:47.938Z,96579.09
2023-03-23T02:52:51.768Z,96570.72
2023-03-23T03:02:57.368Z,96529.00
2023-03-23T03:13:21.103Z,96524.16
2023-03-23T03:23:28.928Z,96500.66
2023-03-23T06:05:09.859Z,96459.28
2023-03-23T06:15:12.813Z,96443.94
2023-03-23T06:25:17.097Z,96442.19
2023-03-23T06:35:19.401Z,96463.88
2023-03-23T06:45:21.897Z,96475.19
2023-03-23T06:55:24.262Z,96464.75
2023-03-23T07:05:26.570Z,96488.03
2023-03-23T07:15:28.875Z,96501.50
2023-03-23T07:25:31.486Z,96497.47
2023-03-23T07:35:34.594Z,96485.91
2023-03-23T07:45:37.176Z,96470.78
2023-03-23T07:55:39.674Z,96466.63
2023-03-23T08:05:43.884Z,96464.66
2023-03-23T08:15:46.627Z,96488.00
2023-03-23T08:25:49.737Z,96470.78
2023-03-23T08:35:59.495Z,96481.84
2023-03-23T08:46:07.862Z,96476.94
2023-03-23T08:56:13.260Z,96497.44
2023-03-23T09:06:15.630Z,96506.47
2023-03-23T09:16:17.936Z,96523.03
2023-03-23T09:26:20.381Z,96515.66
2023-03-23T09:36:23.148Z,96523.16
2023-03-23T09:46:49.369Z,96514.94
2023-03-23T09:56:52.839Z,96523.34
2023-03-23T10:07:17.859Z,96528.13
2023-03-23T10:17:32.523Z,96530.13
2023-03-23T10:27:45.507Z,96535.91
2023-03-23T10:37:58.122Z,96542.03
2023-03-23T10:48:05.316Z,96530.28
2023-03-23T10:58:11.807Z,96508.94
2023-03-23T11:08:17.189Z,96503.94
2023-03-23T11:18:41.308Z,96494.50
2023-03-23T11:29:13.202Z,96494.28
2023-03-23T11:39:29.012Z,96488.56
2023-03-23T11:49:41.462Z,96505.03
2023-03-23T11:59:43.745Z,96501.03
2023-03-23T12:09:50.313Z,96510.72
2023-03-23T12:20:15.810Z,96494.13
2023-03-23T12:30:46.263Z,96492.03
2023-03-23T12:41:08.510Z,96494.56
2023-03-23T12:51:25.861Z,96508.09
2023-03-23T13:11:38.910Z,96519.75
2023-03-23T13:22:07.419Z,96531.16
2023-03-23T13:32:16.401Z,96533.03
2023-03-23T13:42:21.936Z,96516.81
2023-03-23T13:52:41.761Z,96508.59
2023-03-23T14:02:46.006Z,96492.88
2023-03-23T14:12:53.851Z,96501.47
2023-03-23T14:22:57.554Z,96490.94
2023-03-23T14:33:06.712Z,96482.53
2023-03-23T14:43:13.225Z,96463.31
2023-03-23T14:53:33.472Z,96452.69
2023-03-23T15:03:41.098Z,96451.81
2023-03-23T15:13:47.043Z,96444.38
2023-03-23T15:23:49.505Z,96443.25
2023-03-23T15:33:59.915Z,96462.41
2023-03-23T15:44:20.086Z,96464.25
2023-03-23T15:54:22.416Z,96449.97
2023-03-23T16:04:24.917Z,96469.13
2023-03-23T16:14:27.201Z,96476.38
2023-03-23T16:24:29.617Z,96482.03
2023-03-23T16:34:33.998Z,96496.84
2023-03-23T16:44:36.501Z,96530.47
2023-03-23T16:54:38.820Z,96538.69
2023-03-23T17:04:45.838Z,96546.72
2023-03-23T17:14:48.144Z,96565.84
2023-03-23T17:24:51.265Z,96551.66
2023-03-23T17:34:54.225Z,96573.34
2023-03-23T17:44:56.643Z,96590.31
2023-03-23T17:54:59.027Z,96569.03
2023-03-23T18:05:01.405Z,96567.00
2023-03-23T18:15:04.593Z,96588.72
2023-03-23T18:25:07.084Z,96609.44
2023-03-23T18:35:11.183Z,96609.44
2023-03-23T18:45:13.610Z,96590.31
2023-03-23T18:55:16.381Z,96569.25
2023-03-23T19:05:18.875Z,96596.31
2023-03-23T19:15:21.553Z,96613.75
2023-03-23T19:25:23.885Z,96625.63
2023-03-23T19:35:26.587Z,96630.69
2023-03-23T19:45:29.127Z,96614.69
2023-03-23T19:55:31.555Z,96620.84
2023-03-23T20:05:35.628Z,96611.19
2023-03-23T20:15:38.126Z,96625.41
2023-03-23T20:25:40.857Z,96637.50
2023-03-23T20:35:43.532Z,96613.56
2023-03-23T20:45:46.977Z,96614.38
2023-03-23T20:55:51.645Z,96623.69
2023-03-23T21:05:54.034Z,96629.16
2023-03-23T21:15:56.892Z,96644.69
2023-03-23T21:26:02.248Z,96644.44
2023-03-23T21:40:14.336Z,96649.78
2023-03-23T21:50:16.995Z,96639.63
2023-03-23T22:00:19.424Z,96630.41
2023-03-23T22:10:21.725Z,96620.66
2023-03-23T22:20:24.163Z,96608.78
2023-03-23T22:30:29.921Z,96604.41
2023-03-23T22:40:32.228Z,96606.25
2023-03-23T22:50:34.810Z,96598.34
2023-03-23T23:00:39.366Z,96610.88
2023-03-23T23:10:44.241Z,96594.22
2023-03-23T23:20:51.426Z,96583.03
2023-03-23T23:30:54.140Z,96559.22
2023-03-23T23:40:56.437Z,96558.41
2023-03-23T23:50:58.697Z,96556.34
